Time;durP1;ratioP1;P1;durP2;ratioP2;P2;SDS_P1;SDS_P2;PMS_P1;PMS_P2;Temp;Humidity;BMP_temperature;BMP_pressure;BME280_temperature;BME280_humidity;BME280_pressure;Samples;Min_cycle;Max_cycle;Signal;HPM_P1;HPM_P2
2022/03/20 00:00:53;;;;;;;50.70;15.43;;;;;;;38.40;47.08;100991.50;5073234;28;20468;-73
2022/03/20 00:03:22;;;;;;;50.03;17.43;;;;;;;38.44;46.86;100976.22;5055303;28;20421;-73
2022/03/20 00:05:49;;;;;;;55.50;18.70;;;;;;;38.46;46.72;100982.13;5055326;28;20422;-72
2022/03/20 00:08:16;;;;;;;61.00;18.37;;;;;;;38.34;47.32;100974.56;5038689;28;20845;-72
2022/03/20 00:10:45;;;;;;;50.37;15.60;;;;;;;38.41;47.28;100976.84;5055459;28;20414;-71
2022/03/20 00:13:12;;;;;;;42.40;14.33;;;;;;;38.60;47.27;100976.66;5022335;28;20433;-74
2022/03/20 00:15:43;;;;;;;41.43;15.63;;;;;;;38.54;46.75;100977.88;5055075;28;20421;-74
2022/03/20 00:18:10;;;;;;;39.53;16.23;;;;;;;38.42;47.16;100981.13;5054807;28;20812;-74
2022/03/20 00:20:44;;;;;;;40.87;15.93;;;;;;;38.50;46.90;100983.13;5072833;28;20457;-73
2022/03/20 00:23:12;;;;;;;44.60;17.47;;;;;;;38.52;46.93;100972.78;5039126;28;20430;-74
2022/03/20 00:25:44;;;;;;;39.87;13.90;;;;;;;38.43;46.99;100966.50;5035401;28;20439;-74
2022/03/20 00:28:12;;;;;;;53.20;17.70;;;;;;;38.53;46.37;100960.81;5054915;28;20981;-74
2022/03/20 00:30:38;;;;;;;48.83;17.60;;;;;;;38.42;46.46;100960.25;5054731;28;20422;-73
2022/03/20 00:33:04;;;;;;;48.37;18.37;;;;;;;38.30;46.59;100959.19;5054404;28;20422;-74
2022/03/20 00:35:32;;;;;;;40.40;17.30;;;;;;;38.17;47.35;100952.69;5072500;28;20460;-73
2022/03/20 00:37:58;;;;;;;42.70;17.20;;;;;;;38.37;46.73;100951.47;5054598;28;20410;-74
2022/03/20 00:40:24;;;;;;;46.53;16.70;;;;;;;38.28;47.58;100953.28;5054491;28;20974;-74
2022/03/20 00:42:52;;;;;;;66.47;20.63;;;;;;;38.26;47.97;100950.91;5054406;28;20413;-72
2022/03/20 00:45:19;;;;;;;55.20;18.80;;;;;;;38.45;47.29;100948.03;5054522;28;20428;-71
2022/03/20 00:47:45;;;;;;;46.60;20.63;;;;;;;38.44;47.36;100946.41;5072132;28;20425;-72
2022/03/20 00:50:12;;;;;;;50.27;17.27;;;;;;;38.48;46.89;100938.47;5054486;28;20413;-72
2022/03/20 00:52:38;;;;;;;56.97;18.07;;;;;;;38.52;47.08;100936.75;5054343;28;20421;-72
2022/03/20 00:55:04;;;;;;;60.20;20.23;;;;;;;38.29;47.31;100931.31;5054307;28;20428;-73
2022/03/20 00:57:30;;;;;;;52.20;16.80;;;;;;;38.31;47.39;100925.59;5054366;28;20422;-73
2022/03/20 00:59:56;;;;;;;36.63;17.17;;;;;;;38.74;46.51;100911.56;5054063;28;20461;-73
2022/03/20 01:02:23;;;;;;;45.13;16.23;;;;;;;38.65;46.71;100900.63;5054543;28;20936;-72
2022/03/20 01:04:49;;;;;;;44.60;17.87;;;;;;;38.81;45.81;100903.78;5054246;28;20425;-72
2022/03/20 01:07:16;;;;;;;47.17;18.60;;;;;;;38.60;45.57;100903.47;5054135;28;20428;-73
2022/03/20 01:09:42;;;;;;;49.67;17.60;;;;;;;38.54;45.88;100900.06;5037580;28;20421;-73
2022/03/20 01:12:08;;;;;;;54.73;18.47;;;;;;;38.80;45.52;100897.56;5054036;28;20413;-74
2022/03/20 01:14:35;;;;;;;50.43;19.37;;;;;;;38.89;45.23;100900.31;5054140;28;20440;-74
2022/03/20 01:17:01;;;;;;;44.43;19.20;;;;;;;38.68;45.71;100897.31;5054038;28;20414;-73
2022/03/20 01:19:28;;;;;;;42.77;17.20;;;;;;;38.62;46.41;100899.34;5071821;28;20757;-74
2022/03/20 01:21:55;;;;;;;45.30;19.93;;;;;;;38.62;45.80;100903.97;5037610;28;20424;-73
2022/03/20 01:24:24;;;;;;;54.57;16.00;;;;;;;38.57;45.81;100891.34;5021004;28;20446;-74
2022/03/20 01:26:50;;;;;;;70.83;18.47;;;;;;;38.51;46.00;100881.75;5071995;28;20956;-73
2022/03/20 01:29:16;;;;;;;50.73;16.97;;;;;;;38.59;46.17;100877.47;5053926;28;20418;-73
2022/03/20 01:31:42;;;;;;;44.77;15.30;;;;;;;38.56;46.17;100872.69;5053642;28;20453;-72
2022/03/20 01:34:08;;;;;;;42.13;14.90;;;;;;;38.50;45.90;100874.72;5053843;28;20425;-72
2022/03/20 01:36:34;;;;;;;38.67;18.27;;;;;;;38.35;46.78;100869.66;5071680;28;20398;-74
2022/03/20 01:39:01;;;;;;;40.20;16.73;;;;;;;38.47;46.38;100861.78;5072188;28;20409;-72
2022/03/20 01:41:27;;;;;;;50.63;19.37;;;;;;;38.26;46.88;100856.06;5071691;28;20869;-73
2022/03/20 01:43:55;;;;;;;40.03;16.13;;;;;;;38.31;47.11;100844.31;5053724;28;20449;-75
2022/03/20 01:46:22;;;;;;;46.17;13.70;;;;;;;38.38;46.65;100840.06;5056005;28;20450;-74
2022/03/20 01:48:49;;;;;;;47.47;15.60;;;;;;;38.46;46.27;100843.91;5054272;28;20473;-73
2022/03/20 01:51:16;;;;;;;42.93;17.10;;;;;;;38.26;46.53;100841.69;5054516;28;20445;-72
2022/03/20 01:53:43;;;;;;;51.27;17.63;;;;;;;38.28;46.84;100840.31;5054444;28;20529;-72
2022/03/20 01:56:09;;;;;;;55.10;17.67;;;;;;;38.44;46.48;100836.09;5037813;28;20418;-75
2022/03/20 01:58:36;;;;;;;56.60;17.80;;;;;;;38.26;46.44;100826.28;5054444;28;20427;-74
2022/03/20 02:01:03;;;;;;;60.63;20.10;;;;;;;38.30;46.70;100835.38;5053897;28;20453;-74
2022/03/20 02:03:30;;;;;;;59.20;18.13;;;;;;;38.35;46.95;100839.88;5055590;28;20894;-72
2022/03/20 02:05:56;;;;;;;53.10;17.47;;;;;;;38.20;46.94;100837.53;5054059;28;20430;-72
2022/03/20 02:08:26;;;;;;;52.60;16.63;;;;;;;38.25;46.74;100840.09;5054119;28;20430;-73
2022/03/20 02:10:55;;;;;;;39.20;16.53;;;;;;;38.49;46.44;100831.66;5055488;28;20391;-73
2022/03/20 02:13:23;;;;;;;36.90;16.10;;;;;;;38.56;46.00;100832.03;5054039;28;20423;-72
2022/03/20 02:15:51;;;;;;;57.23;20.17;;;;;;;38.42;46.27;100829.38;5054048;28;20806;-72
2022/03/20 02:18:19;;;;;;;69.13;18.97;;;;;;;38.43;46.29;100823.66;5053931;28;20898;-71
2022/03/20 02:20:47;;;;;;;41.30;14.50;;;;;;;38.50;46.34;100825.13;5053887;28;20485;-72
2022/03/20 02:23:17;;;;;;;75.17;18.00;;;;;;;38.17;47.36;100823.47;5053903;28;20433;-74
2022/03/20 02:25:48;;;;;;;55.17;20.30;;;;;;;38.08;47.13;100838.88;5053853;28;20438;-72
2022/03/20 02:28:15;;;;;;;38.43;16.93;;;;;;;38.18;47.15;100838.63;5053837;28;20418;-74
2022/03/20 02:30:42;;;;;;;44.27;18.23;;;;;;;38.10;46.82;100825.81;5053780;28;20391;-75
2022/03/20 02:33:09;;;;;;;46.50;17.80;;;;;;;38.39;46.31;100825.41;5056399;28;20507;-72
2022/03/20 02:35:35;;;;;;;39.13;16.97;;;;;;;38.36;46.14;100819.78;5037054;28;20966;-73
2022/03/20 02:38:02;;;;;;;44.07;15.47;;;;;;;38.30;46.59;100829.16;5053699;28;20418;-72
2022/03/20 02:40:28;;;;;;;39.27;15.73;;;;;;;38.37;46.27;100826.81;5053526;28;20568;-73
2022/03/20 02:42:55;;;;;;;55.53;19.80;;;;;;;38.53;45.76;100819.88;5036872;28;20430;-73
2022/03/20 02:45:27;;;;;;;50.60;19.77;;;;;;;38.60;46.09;100824.84;5054857;28;20988;-73
2022/03/20 02:47:53;;;;;;;39.60;17.77;;;;;;;38.54;45.64;100820.69;5056637;28;20898;-73
2022/03/20 02:50:24;;;;;;;45.13;17.87;;;;;;;38.49;45.72;100820.81;5056545;28;20433;-75
2022/03/20 02:52:58;;;;;;;56.67;20.07;;;;;;;38.44;46.40;100827.97;5056597;28;20422;-74
2022/03/20 02:55:30;;;;;;;42.47;15.23;;;;;;;38.53;45.77;100822.59;5056708;28;20414;-73
2022/03/20 02:57:58;;;;;;;60.90;17.70;;;;;;;38.43;46.30;100822.88;5056203;28;20795;-73
2022/03/20 03:00:26;;;;;;;58.13;19.33;;;;;;;38.55;46.52;100828.53;5056468;28;20457;-73
2022/03/20 03:02:55;;;;;;;66.30;23.07;;;;;;;38.47;46.37;100825.75;5056549;28;20453;-72
2022/03/20 03:05:23;;;;;;;43.73;18.90;;;;;;;38.40;46.33;100828.91;5028766;28;20425;-75
2022/03/20 03:10:55;;;;;;;53.17;19.87;;;;;;;38.35;46.40;100823.59;5054639;28;20757;-72
2022/03/20 03:13:35;;;;;;;51.33;16.40;;;;;;;38.51;45.98;100826.72;5052942;28;20493;-73
2022/03/20 03:16:04;;;;;;;59.83;18.20;;;;;;;38.46;45.73;100824.16;5052732;28;20860;-72
2022/03/20 03:18:31;;;;;;;68.17;19.10;;;;;;;38.42;45.65;100816.63;5052813;28;20442;-74
2022/03/20 03:20:57;;;;;;;55.40;18.30;;;;;;;38.50;45.62;100815.09;5036144;28;20538;-73
2022/03/20 03:23:25;;;;;;;49.60;17.63;;;;;;;38.50;45.57;100819.72;5035974;28;20462;-75
2022/03/20 03:25:51;;;;;;;42.73;15.77;;;;;;;38.53;45.44;100819.88;5052676;28;20474;-75
2022/03/20 03:28:17;;;;;;;37.47;15.17;;;;;;;38.65;45.18;100813.88;5052655;28;20848;-75
2022/03/20 03:30:46;;;;;;;49.40;19.97;;;;;;;38.58;45.55;100814.34;5053841;28;20395;-74
2022/03/20 03:33:16;;;;;;;47.30;17.80;;;;;;;38.40;46.21;100829.69;5052507;28;20403;-73
2022/03/20 03:35:43;;;;;;;58.13;16.33;;;;;;;38.30;46.33;100826.44;5052497;28;20490;-74
2022/03/20 03:38:14;;;;;;;56.30;18.07;;;;;;;38.21;46.70;100830.97;5036195;28;20927;-75
2022/03/20 03:40:42;;;;;;;45.67;19.87;;;;;;;38.35;46.16;100826.31;5052165;28;20466;-75
2022/03/20 03:43:09;;;;;;;44.63;15.63;;;;;;;38.61;46.07;100829.16;5035981;28;20426;-75
2022/03/20 03:45:36;;;;;;;41.60;15.87;;;;;;;38.75;45.49;100837.25;5035894;28;20954;-75
2022/03/20 03:48:04;;;;;;;49.80;18.73;;;;;;;38.63;45.15;100829.66;5051947;28;20819;-74
2022/03/20 03:50:30;;;;;;;43.50;18.20;;;;;;;38.52;45.15;100831.03;5035729;28;20438;-74
2022/03/20 03:52:56;;;;;;;51.47;17.50;;;;;;;38.60;44.86;100828.34;5052129;28;20422;-74
2022/03/20 03:55:22;;;;;;;50.83;17.70;;;;;;;38.42;45.29;100829.38;5035704;28;20417;-73
2022/03/20 03:57:52;;;;;;;69.57;18.27;;;;;;;38.43;45.67;100833.72;5035531;28;20417;-73
2022/03/20 04:00:20;;;;;;;55.67;20.67;;;;;;;38.23;46.32;100840.41;5051956;28;20853;-75
2022/03/20 04:02:48;;;;;;;37.47;14.93;;;;;;;38.53;45.77;100829.94;5052093;28;20832;-75
2022/03/20 04:05:17;;;;;;;46.77;14.80;;;;;;;38.43;45.95;100831.81;5035339;28;20932;-75
2022/03/20 04:07:47;;;;;;;51.23;15.30;;;;;;;38.54;45.85;100834.22;5035168;28;20418;-74
2022/03/20 04:10:15;;;;;;;44.00;17.33;;;;;;;38.53;45.66;100832.63;5034934;28;20435;-72
2022/03/20 04:12:42;;;;;;;61.73;18.10;;;;;;;38.19;45.83;100836.72;5051921;28;20403;-74
2022/03/20 04:15:09;;;;;;;35.83;14.00;;;;;;;38.44;45.35;100838.81;5035241;28;20414;-74
2022/03/20 04:17:36;;;;;;;44.83;15.67;;;;;;;38.73;45.09;100829.41;5051628;28;20513;-73
2022/03/20 04:20:03;;;;;;;47.07;17.77;;;;;;;38.55;45.49;100833.94;5051689;28;20498;-72
2022/03/20 04:22:29;;;;;;;36.87;16.07;;;;;;;38.67;45.53;100833.34;5051576;28;20509;-75
2022/03/20 04:24:56;;;;;;;59.90;19.50;;;;;;;38.68;45.27;100837.66;5051558;28;20451;-73
2022/03/20 04:27:23;;;;;;;47.80;16.87;;;;;;;38.47;45.41;100829.25;5051598;28;20422;-73
2022/03/20 04:29:49;;;;;;;52.27;16.00;;;;;;;38.20;46.12;100826.69;5034936;28;20421;-74
2022/03/20 04:32:16;;;;;;;58.63;18.10;;;;;;;38.31;46.23;100823.44;5034907;28;20501;-74
2022/03/20 04:34:43;;;;;;;45.17;16.83;;;;;;;38.40;46.31;100827.00;5051355;28;20862;-73
2022/03/20 04:37:10;;;;;;;48.07;19.93;;;;;;;38.37;46.12;100824.13;5034770;28;20419;-73
2022/03/20 04:39:38;;;;;;;49.33;19.23;;;;;;;38.49;45.86;100828.94;5018292;28;20936;-75
2022/03/20 04:42:05;;;;;;;51.13;17.60;;;;;;;38.65;44.96;100830.94;5034741;28;20423;-74
2022/03/20 04:44:32;;;;;;;46.07;18.30;;;;;;;38.17;45.78;100828.88;5034638;28;20449;-73
2022/03/20 04:46:58;;;;;;;63.03;19.10;;;;;;;38.22;45.52;100825.25;5034338;28;20450;-73
2022/03/20 05:00:36;;;;;;;55.63;15.30;;;;;;;38.19;45.51;100828.59;5052266;28;20477;-72
2022/03/20 05:03:02;;;;;;;34.30;13.23;;;;;;;38.31;45.94;100823.44;5052231;28;20418;-73
2022/03/20 05:05:28;;;;;;;67.87;17.80;;;;;;;38.43;45.30;100809.31;5050989;28;20469;-74
2022/03/20 05:07:54;;;;;;;52.57;18.30;;;;;;;38.49;45.39;100810.78;5051180;28;20414;-72
2022/03/20 05:13:26;;;;;;;35.53;16.40;;;;;;;38.16;45.55;100821.88;5052184;28;20825;-74
2022/03/20 05:15:58;;;;;;;36.93;15.90;;;;;;;38.03;46.17;100817.31;5051616;28;20427;-74
2022/03/20 05:18:24;;;;;;;55.47;17.93;;;;;;;38.02;46.53;100815.72;5052064;28;20444;-72
2022/03/20 05:20:52;;;;;;;44.63;14.90;;;;;;;38.14;46.77;100813.25;5049817;28;20531;-73
2022/03/20 05:23:23;;;;;;;58.23;18.63;;;;;;;38.01;47.07;100824.16;5048534;28;20507;-72
2022/03/20 05:25:49;;;;;;;48.07;17.10;;;;;;;37.97;47.07;100823.16;5030963;28;20776;-74
2022/03/20 05:28:16;;;;;;;35.43;15.73;;;;;;;37.96;46.26;100825.06;5031090;28;20443;-74
2022/03/20 05:30:44;;;;;;;38.33;17.47;;;;;;;37.73;46.58;100831.53;5030711;28;20422;-72
2022/03/20 05:33:12;;;;;;;42.10;17.10;;;;;;;38.01;46.21;100832.28;5030752;28;20503;-72
2022/03/20 05:35:39;;;;;;;50.47;15.00;;;;;;;37.88;46.48;100831.22;5014472;28;20466;-74
2022/03/20 05:38:09;;;;;;;48.57;16.43;;;;;;;37.69;46.99;100831.38;5031987;28;20400;-73
2022/03/20 05:40:39;;;;;;;39.73;16.30;;;;;;;37.94;46.69;100824.59;5030637;28;20483;-73
2022/03/20 05:43:08;;;;;;;52.67;16.63;;;;;;;38.09;46.29;100823.41;5030556;28;20940;-74
2022/03/20 05:45:37;;;;;;;54.63;17.67;;;;;;;38.31;45.81;100823.44;5030689;28;20914;-72
2022/03/20 05:48:04;;;;;;;53.47;15.50;;;;;;;38.28;46.05;100825.97;5017236;28;20470;-73
2022/03/20 05:50:30;;;;;;;40.73;18.63;;;;;;;38.25;46.00;100824.66;5033886;28;20407;-72
2022/03/20 05:52:56;;;;;;;56.43;18.50;;;;;;;38.17;46.25;100828.09;5033743;28;20479;-72
2022/03/20 05:58:01;;;;;;;52.10;17.30;;;;;;;38.35;46.15;100829.81;5033706;28;20411;-73
2022/03/20 05:58:13;;;;;;;40.13;16.93;;;;;;;38.18;45.80;100825.09;5051508;28;20758;-73
2022/03/20 06:00:41;;;;;;;40.13;14.97;;;;;;;38.27;46.15;100832.50;5033697;28;20462;-73
2022/03/20 06:03:09;;;;;;;58.10;17.23;;;;;;;38.25;45.91;100840.91;5033658;28;20423;-72
2022/03/20 06:05:35;;;;;;;33.53;18.50;;;;;;;38.40;45.62;100837.03;5033763;28;20497;-72
2022/03/20 06:08:02;;;;;;;70.73;17.40;;;;;;;38.06;46.01;100846.50;5033711;28;20423;-74
2022/03/20 06:10:28;;;;;;;39.70;17.13;;;;;;;38.29;45.43;100844.59;5033530;28;20955;-73
2022/03/20 06:12:54;;;;;;;63.50;18.10;;;;;;;38.31;45.75;100858.66;5033633;28;20502;-74
2022/03/20 06:15:20;;;;;;;46.73;15.83;;;;;;;38.51;45.43;100859.25;5033651;28;20443;-75
2022/03/20 06:17:46;;;;;;;62.00;19.77;;;;;;;38.42;45.07;100854.56;5051505;28;20391;-75
2022/03/20 06:20:14;;;;;;;57.00;17.30;;;;;;;38.54;45.04;100856.72;5033518;28;20459;-74
2022/03/20 06:22:44;;;;;;;35.83;17.30;;;;;;;38.55;45.23;100854.78;5033510;28;20796;-72
2022/03/20 06:25:15;;;;;;;48.60;19.27;;;;;;;38.40;45.37;100869.56;5033439;28;20954;-71
2022/03/20 06:27:53;;;;;;;60.00;18.37;;;;;;;38.36;45.50;100865.84;5033354;28;20446;-72
2022/03/20 06:30:20;;;;;;;46.40;17.17;;;;;;;38.42;45.46;100876.25;5033474;28;20421;-73
2022/03/20 06:32:48;;;;;;;44.97;16.80;;;;;;;38.50;45.81;100884.75;5036028;28;20489;-74
2022/03/20 06:35:17;;;;;;;60.67;19.00;;;;;;;38.41;45.94;100890.91;5049478;28;20991;-71
2022/03/20 06:37:45;;;;;;;40.47;15.77;;;;;;;38.64;45.49;100883.56;5056261;28;20872;-72
2022/03/20 06:40:14;;;;;;;60.93;19.20;;;;;;;38.57;45.44;100901.38;5038014;28;20538;-70
2022/03/20 06:42:41;;;;;;;40.47;18.63;;;;;;;38.47;45.61;100899.72;5073570;28;20434;-73
2022/03/20 06:45:10;;;;;;;64.93;18.80;;;;;;;38.43;46.18;100901.47;5055320;28;20451;-74
2022/03/20 06:47:36;;;;;;;43.63;16.20;;;;;;;38.29;46.41;100898.00;5055444;28;20948;-72
2022/03/20 06:50:05;;;;;;;68.63;21.23;;;;;;;38.46;45.81;100906.25;5055122;28;20500;-72
2022/03/20 06:52:31;;;;;;;46.80;16.20;;;;;;;38.25;46.27;100907.84;5055350;28;20485;-71
2022/03/20 06:55:03;;;;;;;49.03;14.80;;;;;;;38.23;46.27;100915.44;5055319;28;20449;-71
2022/03/20 06:57:32;;;;;;;45.77;15.80;;;;;;;38.39;46.30;100900.47;5053536;28;20539;-72
2022/03/20 07:00:00;;;;;;;49.57;15.40;;;;;;;38.49;46.07;100904.81;5055208;28;20453;-73
2022/03/20 07:02:27;;;;;;;52.30;18.33;;;;;;;38.49;45.92;100915.66;5054996;28;20449;-72
2022/03/20 07:04:53;;;;;;;44.20;15.90;;;;;;;38.56;45.70;100924.19;5056026;28;20453;-73
2022/03/20 07:07:22;;;;;;;37.97;15.93;;;;;;;38.58;45.91;100921.97;5073654;28;20441;-72
2022/03/20 07:09:49;;;;;;;50.17;17.40;;;;;;;38.59;45.51;100921.63;5056423;28;20418;-73
2022/03/20 07:12:15;;;;;;;43.77;17.87;;;;;;;38.66;45.29;100926.63;5053406;28;20858;-72
2022/03/20 07:14:42;;;;;;;50.40;17.80;;;;;;;38.54;46.00;100932.59;5074102;28;20460;-74
2022/03/20 07:17:16;;;;;;;67.70;18.70;;;;;;;38.76;45.42;100931.03;5056297;28;20425;-72
2022/03/20 07:19:44;;;;;;;55.63;17.73;;;;;;;38.47;45.69;100939.56;5056114;28;20427;-72
2022/03/20 07:22:14;;;;;;;57.77;19.60;;;;;;;38.80;45.29;100946.38;5056153;28;20424;-73
2022/03/20 07:24:42;;;;;;;43.93;15.50;;;;;;;38.75;44.87;100949.22;5055944;28;20469;-71
2022/03/20 07:29:54;;;;;;;41.43;14.17;;;;;;;38.82;45.45;100954.19;5059075;28;20447;-68
2022/03/20 07:32:20;;;;;;;57.77;16.13;;;;;;;38.81;45.11;100955.31;5073857;28;20955;-73
2022/03/20 07:34:47;;;;;;;43.97;20.33;;;;;;;38.93;44.46;100955.53;5038896;28;20422;-69
2022/03/20 07:37:18;;;;;;;47.30;17.23;;;;;;;39.03;44.48;100973.44;5039000;28;20441;-71
2022/03/20 07:39:48;;;;;;;55.23;18.80;;;;;;;39.09;44.11;100973.00;5055876;28;20410;-74
2022/03/20 07:42:16;;;;;;;36.20;14.10;;;;;;;39.04;44.56;100980.47;5039447;28;20528;-71
2022/03/20 07:44:44;;;;;;;45.83;17.50;;;;;;;39.10;44.76;100976.50;5054273;28;20509;-71
2022/03/20 07:47:22;;;;;;;52.67;18.27;;;;;;;38.94;44.26;100978.84;5055533;28;20448;-72
2022/03/20 07:49:50;;;;;;;58.00;17.07;;;;;;;39.00;43.80;100985.72;5062282;28;20457;-72
2022/03/20 07:52:16;;;;;;;53.23;20.43;;;;;;;38.90;44.37;100988.69;5054871;28;20414;-72
2022/03/20 07:54:44;;;;;;;32.87;15.37;;;;;;;38.85;44.82;100995.03;5055633;28;20430;-72
2022/03/20 07:57:10;;;;;;;49.73;18.23;;;;;;;39.02;44.41;100994.34;5055430;28;20430;-70
2022/03/20 07:59:36;;;;;;;39.23;14.23;;;;;;;39.02;44.34;100994.34;5055360;28;20452;-68
2022/03/20 08:02:03;;;;;;;40.67;15.57;;;;;;;38.87;44.93;100997.47;5065490;28;20464;-67
2022/03/20 08:04:29;;;;;;;50.67;15.60;;;;;;;39.02;44.47;100991.63;5083777;28;20469;-68
2022/03/20 08:06:55;;;;;;;42.57;18.13;;;;;;;39.01;44.82;100992.75;5081787;28;20410;-71
2022/03/20 08:09:21;;;;;;;49.67;14.90;;;;;;;39.10;44.85;101000.94;5063526;28;20472;-69
2022/03/20 08:11:47;;;;;;;57.80;17.70;;;;;;;39.03;45.06;101004.09;5058594;28;20425;-69
2022/03/20 08:14:13;;;;;;;47.13;16.07;;;;;;;39.00;43.78;101007.44;5054280;28;21005;-67
2022/03/20 08:16:39;;;;;;;57.23;20.00;;;;;;;38.88;43.80;101012.63;5069249;28;20460;-71
2022/03/20 08:19:08;;;;;;;49.30;18.30;;;;;;;38.92;43.71;101008.97;5075088;28;20420;-71
2022/03/20 08:21:35;;;;;;;37.67;17.40;;;;;;;39.01;43.79;101011.75;5093091;28;20455;-74
2022/03/20 08:24:02;;;;;;;72.37;20.60;;;;;;;39.17;43.61;101014.91;5069321;28;20836;-72
2022/03/20 08:26:32;;;;;;;44.07;19.43;;;;;;;39.26;43.22;101017.66;5054828;28;20532;-72
2022/03/20 08:28:59;;;;;;;46.43;17.70;;;;;;;39.32;42.86;101016.41;5045312;28;20907;-71
2022/03/20 08:31:30;;;;;;;65.80;18.37;;;;;;;39.37;43.11;101021.69;5074656;28;20454;-72
2022/03/20 08:33:59;;;;;;;53.27;22.87;;;;;;;39.34;43.28;101014.16;5074770;28;20478;-73
2022/03/20 08:36:25;;;;;;;49.80;18.60;;;;;;;39.39;42.92;101024.91;5075043;28;20428;-73
2022/03/20 08:38:52;;;;;;;49.40;18.20;;;;;;;39.38;42.83;101026.00;5074514;28;20532;-74
2022/03/20 08:41:19;;;;;;;57.27;20.63;;;;;;;39.46;42.69;101023.31;5092855;28;20441;-75
2022/03/20 08:43:45;;;;;;;54.10;20.53;;;;;;;39.53;42.60;101025.59;5074283;28;21144;-72
2022/03/20 08:46:11;;;;;;;36.97;18.83;;;;;;;39.33;43.26;101024.22;5074333;28;20445;-72
2022/03/20 08:48:38;;;;;;;49.33;20.03;;;;;;;39.25;43.35;101021.47;5071004;28;21011;-72
2022/03/20 08:51:04;;;;;;;62.70;19.63;;;;;;;39.36;43.40;101028.25;5070912;28;20820;-72
2022/03/20 08:53:30;;;;;;;55.70;16.90;;;;;;;39.40;43.12;101030.00;5071135;28;20414;-72
2022/03/20 08:55:56;;;;;;;42.20;18.20;;;;;;;39.36;43.37;101028.25;5070696;28;20422;-74
2022/03/20 08:58:22;;;;;;;45.57;16.93;;;;;;;39.51;42.98;101030.53;5071003;28;20425;-72
2022/03/20 09:00:48;;;;;;;47.97;18.13;;;;;;;39.50;42.94;101023.50;5070980;28;20532;-73
2022/03/20 09:03:14;;;;;;;58.90;19.10;;;;;;;39.58;43.07;101022.72;5052419;28;20969;-73
2022/03/20 09:05:41;;;;;;;44.37;16.87;;;;;;;39.64;43.11;101028.84;5044638;28;20806;-73
2022/03/20 09:08:07;;;;;;;48.03;17.23;;;;;;;39.52;43.56;101029.41;5033315;28;20426;-72
2022/03/20 09:10:34;;;;;;;48.00;18.67;;;;;;;39.61;43.13;101024.06;5038445;28;20916;-72
2022/03/20 09:13:00;;;;;;;58.53;18.23;;;;;;;39.57;43.08;101025.75;5034293;28;20438;-72
2022/03/20 09:15:28;;;;;;;57.83;16.47;;;;;;;39.64;43.07;101035.09;5034352;28;20481;-72
2022/03/20 09:20:41;;;;;;;58.53;14.40;;;;;;;39.86;42.69;101033.41;5051901;28;20448;-73
2022/03/20 09:23:08;;;;;;;44.60;20.33;;;;;;;39.69;42.63;101034.16;5050680;28;20450;-72
2022/03/20 09:25:35;;;;;;;41.37;16.20;;;;;;;39.61;42.62;101033.00;5052060;28;20438;-71
2022/03/20 09:28:03;;;;;;;42.70;16.87;;;;;;;39.60;42.75;101052.31;5043247;28;20462;-72
2022/03/20 09:30:30;;;;;;;48.50;16.00;;;;;;;39.64;42.40;101042.44;5045931;28;20442;-74
2022/03/20 09:32:56;;;;;;;46.33;17.30;;;;;;;39.30;42.57;101041.16;5043155;28;20793;-73
2022/03/20 09:35:22;;;;;;;53.87;20.87;;;;;;;39.47;42.79;101053.97;5076968;22;20478;-72
2022/03/20 09:37:49;;;;;;;40.87;15.63;;;;;;;39.57;42.51;101058.34;5048066;28;20431;-72
2022/03/20 09:40:16;;;;;;;45.87;19.00;;;;;;;39.53;42.72;101054.66;5058731;28;20458;-72
2022/03/20 09:42:42;;;;;;;49.53;15.87;;;;;;;39.75;42.02;101055.41;5061647;28;20418;-72
2022/03/20 09:45:09;;;;;;;48.00;18.27;;;;;;;39.60;42.56;101055.03;5052202;28;20941;-73
2022/03/20 09:47:40;;;;;;;59.13;14.37;;;;;;;39.64;42.75;101054.09;5052779;28;20422;-72
2022/03/20 09:50:08;;;;;;;42.33;16.00;;;;;;;39.71;42.63;101053.63;5053706;28;20402;-71
2022/03/20 09:52:36;;;;;;;36.23;17.13;;;;;;;39.59;42.79;101051.47;5071561;28;20523;-71
2022/03/20 09:55:03;;;;;;;49.33;18.10;;;;;;;39.65;42.98;101047.53;5027149;28;20411;-72
2022/03/20 18:08:32;;;;;;;52.40;17.70;;;;;;;40.40;41.29;100764.91;4751338;30;20517;-69
2022/03/20 18:10:58;;;;;;;49.00;18.80;;;;;;;40.39;41.25;100771.44;4764390;30;20555;-69
2022/03/20 18:13:24;;;;;;;49.67;18.80;;;;;;;40.14;41.50;100773.09;4763933;30;20202;-66
2022/03/20 18:15:50;;;;;;;49.07;20.83;;;;;;;40.26;41.37;100771.31;4749442;30;20449;-67
2022/03/20 18:18:17;;;;;;;40.13;16.93;;;;;;;40.33;40.91;100779.00;4764295;30;20465;-66
2022/03/20 18:20:43;;;;;;;37.97;15.90;;;;;;;40.39;40.83;100780.41;4731672;30;20845;-66
2022/03/20 18:23:10;;;;;;;56.97;18.03;;;;;;;40.34;40.97;100782.50;4753911;30;20445;-69
2022/03/20 18:25:39;;;;;;;41.63;14.80;;;;;;;40.43;41.32;100777.81;4750226;30;20556;-67
2022/03/20 18:28:07;;;;;;;58.67;19.13;;;;;;;40.23;41.92;100779.34;4752434;30;20444;-66
2022/03/20 18:30:33;;;;;;;41.13;17.50;;;;;;;40.22;41.29;100783.19;4767816;30;20433;-69
2022/03/20 18:33:00;;;;;;;39.83;16.90;;;;;;;40.18;41.50;100783.00;4782710;29;20514;-67
2022/03/20 18:35:28;;;;;;;39.10;18.30;;;;;;;40.04;42.00;100774.28;4782205;29;20448;-67
2022/03/20 18:37:57;;;;;;;40.73;15.97;;;;;;;39.99;42.04;100777.13;4753114;30;20498;-66
2022/03/20 18:40:24;;;;;;;39.40;18.13;;;;;;;40.23;41.48;100780.13;4753859;30;20421;-66
2022/03/20 18:42:51;;;;;;;55.73;19.30;;;;;;;40.28;41.27;100779.97;4782624;29;20445;-69
2022/03/20 18:45:20;;;;;;;30.70;14.53;;;;;;;40.31;41.61;100772.28;4767647;30;20440;-66
2022/03/20 18:47:46;;;;;;;38.07;15.63;;;;;;;40.29;41.99;100775.31;4753967;30;20430;-66
2022/03/20 18:50:14;;;;;;;44.77;17.90;;;;;;;40.08;41.81;100774.41;4752676;30;20444;-70
2022/03/20 18:52:43;;;;;;;46.93;15.47;;;;;;;39.98;42.33;100779.03;4752397;30;20441;-66
2022/03/20 18:55:10;;;;;;;47.53;22.20;;;;;;;40.01;42.16;100778.38;4767202;30;20965;-66
2022/03/20 18:57:37;;;;;;;38.23;16.93;;;;;;;40.25;41.34;100779.78;4753264;30;20433;-66
2022/03/20 19:00:10;;;;;;;44.07;16.77;;;;;;;40.06;41.63;100782.88;4752153;30;20499;-69
2022/03/20 19:02:38;;;;;;;60.93;21.27;;;;;;;40.19;41.57;100784.59;4769806;30;20608;-66
2022/03/20 19:05:05;;;;;;;34.87;14.50;;;;;;;40.22;41.61;100792.13;4750446;30;20437;-66
2022/03/20 19:07:30;;;;;;;32.37;14.87;;;;;;;40.26;41.83;100787.63;4774119;30;20441;-68
2022/03/20 19:09:56;;;;;;;61.70;17.90;;;;;;;40.14;41.62;100801.06;4781744;29;20471;-68
2022/03/20 19:12:22;;;;;;;39.30;15.40;;;;;;;40.24;41.27;100797.22;4781189;29;21597;-68
2022/03/20 19:14:48;;;;;;;49.33;18.70;;;;;;;40.35;41.19;100806.63;4766300;30;20286;-66
2022/03/20 19:17:14;;;;;;;41.87;19.30;;;;;;;40.32;40.59;100809.19;4766031;30;20441;-66
2022/03/20 19:19:40;;;;;;;47.93;20.50;;;;;;;40.15;41.28;100812.78;4766074;30;20437;-68
2022/03/20 19:22:06;;;;;;;76.43;18.60;;;;;;;40.17;41.23;100818.66;4773685;29;20496;-66
2022/03/20 19:24:34;;;;;;;50.00;20.80;;;;;;;39.82;42.23;100828.75;4760482;29;20449;-69
2022/03/20 19:27:05;;;;;;;48.97;18.70;;;;;;;40.00;41.65;100839.28;4751954;30;20779;-70
2022/03/20 19:29:32;;;;;;;48.40;21.43;;;;;;;40.10;41.72;100829.25;4764767;30;20437;-68
2022/03/20 19:31:58;;;;;;;62.97;17.17;;;;;;;40.03;41.73;100821.53;4752808;30;20444;-70
2022/03/20 19:39:54;;;;;;;53.73;21.00;;;;;;;39.69;42.50;100844.88;4750529;30;20440;-69
2022/03/20 19:42:27;;;;;;;43.80;22.87;;;;;;;39.51;42.61;100837.78;4735408;30;20950;-67
2022/03/20 19:44:53;;;;;;;52.87;16.70;;;;;;;39.38;42.95;100833.31;4775305;30;20863;-70
2022/03/20 19:47:20;;;;;;;57.47;17.53;;;;;;;39.31;42.37;100850.06;4773166;30;20425;-70
2022/03/20 19:49:49;;;;;;;68.13;18.77;;;;;;;39.61;42.30;100847.59;4746719;30;20486;-70